Aérodrome :
LOGIN :

S'inscrire | Disclaimer

   EN    FR    IT 

 










Légende :    VFR   VFR Marginal   IFR   IFR Intensif   IFR Très Intensif
Visi : 
Plafond : 
>= 8 km
>= 3000ft
5 à 8 km
1000 à 3000 ft
1500m à 5 km
500 à 1000 ft
800 à 1500m
200 à 500 ft
< 800m
< 200 ft
Symboles :   Orages  Brouillard  Fortes neiges  Fortes précipitations  Vent > 20 kt
SIGMETs :   Divers  Orages  Givrage  Turbulence  Onde Orograph.  Cendres Volcan.






- Altitude de l'aérodrome : 46 ft
- Code IATA : SNN


EINN - Shannon

DERNIER METAR :
  • 091630Z 28007KT 9999 FEW035 SCT060 22/13 Q1018 NOSIG

METARs EXPIRÉS :
  • 091600Z 26007KT 9999 FEW035 SCT060 22/13 Q1019 NOSIG
  • 091530Z 27007KT 9999 FEW035 SCT060 22/13 Q1019 NOSIG
  • 091500Z 25006KT 9999 FEW035 SCT060 22/13 Q1019 NOSIG
  • 091430Z 25005KT 210V300 9999 FEW035 SCT060 22/13 Q1019 NOSIG
  • 091400Z 30005KT 9999 FEW035 SCT060 23/13 Q1019 NOSIG

TAF TAF EINN
Valide du 09 à 12h jusqu'au 10 à 12h UTC


091100Z 0912/1012 VRB03KT 9999 FEW035 SCT045
BECMG 0914/0916 03010KT
BECMG 0921/0923 35005KT
PROB30
TEMPO 1002/1007 4000 BR



MET'MAP, la Météo Aéronautique d'un coup d'oeil ! - Copyright ORBIFLY Décembre 2007 - Disclaimer

ORBIFLY MET'MAP TEAM :

Programmation & Développement : Alexandra Zaïnal
Sur une idée originale de : Baudouin d'Aumeries
Assistance à la programmation : Marc-Olivier Méhu
Soutien technique & logistique : Manuel Goepfert

Contact : metmap@orbifly.com




SOURCES & CREDITS :

   NOAA